sensor_id;sensor_type;location;lat;lon;timestamp;noise_LAeq;noise_LA_min;noise_LA_max;noise_LA01;noise_LA95
57439;Laerm;43282;47.188;8.896;2023-06-10T00:00:00;46.17;38.05;57.99;;
57439;Laerm;43282;47.188;8.896;2023-06-10T00:02:26;48.00;39.46;61.65;;
57439;Laerm;43282;47.188;8.896;2023-06-10T00:04:52;48.30;37.12;64.82;;
57439;Laerm;43282;47.188;8.896;2023-06-10T00:07:17;47.91;38.05;61.12;;
57439;Laerm;43282;47.188;8.896;2023-06-10T00:09:43;42.26;38.52;48.63;;
57439;Laerm;43282;47.188;8.896;2023-06-10T00:12:08;42.64;38.18;53.93;;
57439;Laerm;43282;47.188;8.896;2023-06-10T00:14:38;46.88;38.52;63.00;;
57439;Laerm;43282;47.188;8.896;2023-06-10T00:17:03;43.75;39.34;55.75;;
57439;Laerm;43282;47.188;8.896;2023-06-10T00:19:29;44.39;36.91;61.25;;
57439;Laerm;43282;47.188;8.896;2023-06-10T00:21:58;45.37;38.05;60.32;;
57439;Laerm;43282;47.188;8.896;2023-06-10T00:24:24;41.90;38.81;47.59;;
57439;Laerm;43282;47.188;8.896;2023-06-10T00:26:49;41.05;38.05;44.58;;
57439;Laerm;43282;47.188;8.896;2023-06-10T00:29:15;41.10;36.69;44.03;;
57439;Laerm;43282;47.188;8.896;2023-06-10T00:31:41;46.46;38.37;59.41;;
57439;Laerm;43282;47.188;8.896;2023-06-10T00:34:06;44.11;38.47;59.16;;
57439;Laerm;43282;47.188;8.896;2023-06-10T00:36:32;41.28;36.91;45.20;;
57439;Laerm;43282;47.188;8.896;2023-06-10T00:38:57;45.31;37.32;58.88;;
57439;Laerm;43282;47.188;8.896;2023-06-10T00:41:23;45.12;37.88;63.22;;
57439;Laerm;43282;47.188;8.896;2023-06-10T00:43:48;46.44;38.81;63.22;;
57439;Laerm;43282;47.188;8.896;2023-06-10T00:46:13;46.41;38.67;62.18;;
57439;Laerm;43282;47.188;8.896;2023-06-10T00:48:40;44.36;37.32;54.07;;
57439;Laerm;43282;47.188;8.896;2023-06-10T00:51:06;43.64;38.52;55.68;;
57439;Laerm;43282;47.188;8.896;2023-06-10T00:53:34;45.14;38.81;59.52;;
57439;Laerm;43282;47.188;8.896;2023-06-10T00:56:00;42.54;38.37;50.61;;
57439;Laerm;43282;47.188;8.896;2023-06-10T00:58:26;43.22;38.37;58.70;;
57439;Laerm;43282;47.188;8.896;2023-06-10T01:00:53;46.97;37.70;65.11;;
57439;Laerm;43282;47.188;8.896;2023-06-10T01:03:18;44.69;37.32;64.24;;
57439;Laerm;43282;47.188;8.896;2023-06-10T01:05:43;40.28;36.45;42.98;;
57439;Laerm;43282;47.188;8.896;2023-06-10T01:08:28;46.34;37.12;66.25;;
57439;Laerm;43282;47.188;8.896;2023-06-10T01:10:57;44.64;37.52;61.25;;
57439;Laerm;43282;47.188;8.896;2023-06-10T01:13:27;44.76;38.21;58.22;;
57439;Laerm;43282;47.188;8.896;2023-06-10T01:15:56;40.73;37.88;42.82;;
57439;Laerm;43282;47.188;8.896;2023-06-10T01:18:22;40.89;37.88;51.45;;
57439;Laerm;43282;47.188;8.896;2023-06-10T01:20:47;47.38;37.32;61.61;;
57439;Laerm;43282;47.188;8.896;2023-06-10T01:23:14;40.67;37.52;43.94;;
57439;Laerm;43282;47.188;8.896;2023-06-10T01:25:40;41.31;38.21;47.22;;
57439;Laerm;43282;47.188;8.896;2023-06-10T01:31:00;41.25;35.04;47.08;;
57439;Laerm;43282;47.188;8.896;2023-06-10T01:33:25;44.26;36.20;59.82;;
57439;Laerm;43282;47.188;8.896;2023-06-10T01:35:52;44.24;37.32;59.39;;
57439;Laerm;43282;47.188;8.896;2023-06-10T01:38:18;45.43;38.52;60.32;;
57439;Laerm;43282;47.188;8.896;2023-06-10T01:40:52;45.06;38.81;58.29;;
57439;Laerm;43282;47.188;8.896;2023-06-10T01:43:19;41.66;35.94;50.00;;
57439;Laerm;43282;47.188;8.896;2023-06-10T01:45:45;41.74;37.12;51.44;;
57439;Laerm;43282;47.188;8.896;2023-06-10T01:48:10;42.29;39.21;49.43;;
57439;Laerm;43282;47.188;8.896;2023-06-10T01:50:35;43.49;37.52;57.65;;
57439;Laerm;43282;47.188;8.896;2023-06-10T01:53:01;40.94;37.70;50.06;;
57439;Laerm;43282;47.188;8.896;2023-06-10T01:55:26;40.49;37.70;43.54;;
57439;Laerm;43282;47.188;8.896;2023-06-10T01:57:51;41.44;37.70;46.84;;
57439;Laerm;43282;47.188;8.896;2023-06-10T02:00:17;40.26;35.36;45.01;;
57439;Laerm;43282;47.188;8.896;2023-06-10T02:02:43;46.92;37.70;62.41;;
57439;Laerm;43282;47.188;8.896;2023-06-10T02:05:08;40.40;36.20;45.20;;
57439;Laerm;43282;47.188;8.896;2023-06-10T02:07:33;41.83;34.69;56.39;;
57439;Laerm;43282;47.188;8.896;2023-06-10T02:09:59;45.28;36.91;61.86;;
57439;Laerm;43282;47.188;8.896;2023-06-10T02:12:24;40.84;37.70;45.45;;
57439;Laerm;43282;47.188;8.896;2023-06-10T02:14:50;44.18;37.12;58.77;;
57439;Laerm;43282;47.188;8.896;2023-06-10T02:17:15;43.34;36.69;60.48;;
57439;Laerm;43282;47.188;8.896;2023-06-10T02:19:41;41.00;37.88;45.69;;
57439;Laerm;43282;47.188;8.896;2023-06-10T02:22:08;42.70;37.88;54.60;;
57439;Laerm;43282;47.188;8.896;2023-06-10T02:24:33;45.89;38.05;60.18;;
57439;Laerm;43282;47.188;8.896;2023-06-10T02:26:58;40.55;37.32;44.07;;
57439;Laerm;43282;47.188;8.896;2023-06-10T02:29:25;40.70;37.12;47.63;;
57439;Laerm;43282;47.188;8.896;2023-06-10T02:31:51;40.18;32.93;45.39;;
57439;Laerm;43282;47.188;8.896;2023-06-10T02:34:18;41.26;37.12;51.81;;
57439;Laerm;43282;47.188;8.896;2023-06-10T02:36:43;41.53;36.98;54.83;;
57439;Laerm;43282;47.188;8.896;2023-06-10T02:39:09;43.86;38.67;52.50;;
57439;Laerm;43282;47.188;8.896;2023-06-10T02:41:34;45.82;38.21;56.94;;
57439;Laerm;43282;47.188;8.896;2023-06-10T02:44:00;44.98;37.70;53.27;;
57439;Laerm;43282;47.188;8.896;2023-06-10T02:46:26;45.68;36.45;56.54;;
57439;Laerm;43282;47.188;8.896;2023-06-10T02:48:53;46.78;36.45;56.73;;
57439;Laerm;43282;47.188;8.896;2023-06-10T02:51:19;45.29;36.20;61.17;;
57439;Laerm;43282;47.188;8.896;2023-06-10T02:53:44;41.20;36.69;48.07;;
57439;Laerm;43282;47.188;8.896;2023-06-10T02:56:10;46.88;37.70;63.06;;
57439;Laerm;43282;47.188;8.896;2023-06-10T02:58:36;51.06;38.81;71.54;;
57439;Laerm;43282;47.188;8.896;2023-06-10T03:01:02;49.10;39.70;58.21;;
57439;Laerm;43282;47.188;8.896;2023-06-10T03:03:27;50.82;41.14;62.68;;
57439;Laerm;43282;47.188;8.896;2023-06-10T03:05:52;50.68;40.33;62.39;;
57439;Laerm;43282;47.188;8.896;2023-06-10T03:08:18;50.59;40.89;60.85;;
57439;Laerm;43282;47.188;8.896;2023-06-10T03:10:43;52.60;40.98;66.11;;
57439;Laerm;43282;47.188;8.896;2023-06-10T03:13:08;52.53;40.89;65.01;;
57439;Laerm;43282;47.188;8.896;2023-06-10T03:15:35;51.79;41.38;63.86;;
57439;Laerm;43282;47.188;8.896;2023-06-10T03:18:01;49.95;40.62;59.29;;
57439;Laerm;43282;47.188;8.896;2023-06-10T03:20:27;50.39;40.88;62.78;;
57439;Laerm;43282;47.188;8.896;2023-06-10T03:22:53;49.43;37.88;62.24;;
57439;Laerm;43282;47.188;8.896;2023-06-10T03:25:18;47.86;38.21;58.09;;
57439;Laerm;43282;47.188;8.896;2023-06-10T03:27:45;52.81;38.81;73.74;;
57439;Laerm;43282;47.188;8.896;2023-06-10T03:30:11;51.84;39.08;72.31;;
57439;Laerm;43282;47.188;8.896;2023-06-10T03:32:37;49.65;39.08;80.11;;
57439;Laerm;43282;47.188;8.896;2023-06-10T03:35:03;47.81;38.52;64.56;;
57439;Laerm;43282;47.188;8.896;2023-06-10T03:37:28;47.37;38.52;64.29;;
57439;Laerm;43282;47.188;8.896;2023-06-10T03:39:53;45.30;38.37;65.60;;
57439;Laerm;43282;47.188;8.896;2023-06-10T03:42:19;43.81;38.81;65.85;;
57439;Laerm;43282;47.188;8.896;2023-06-10T03:44:44;47.07;39.58;64.33;;
57439;Laerm;43282;47.188;8.896;2023-06-10T03:47:10;45.87;40.23;61.41;;
57439;Laerm;43282;47.188;8.896;2023-06-10T03:49:35;48.91;39.70;62.99;;
57439;Laerm;43282;47.188;8.896;2023-06-10T03:52:01;49.29;40.23;65.82;;
57439;Laerm;43282;47.188;8.896;2023-06-10T03:54:28;50.10;40.03;64.29;;
57439;Laerm;43282;47.188;8.896;2023-06-10T03:56:54;45.60;40.03;57.41;;
57439;Laerm;43282;47.188;8.896;2023-06-10T03:59:19;48.06;39.81;64.12;;
57439;Laerm;43282;47.188;8.896;2023-06-10T04:01:44;49.59;39.70;64.41;;
57439;Laerm;43282;47.188;8.896;2023-06-10T04:04:13;48.45;42.09;63.77;;
57439;Laerm;43282;47.188;8.896;2023-06-10T04:06:40;46.97;41.53;58.91;;
57439;Laerm;43282;47.188;8.896;2023-06-10T04:09:06;51.82;41.30;67.06;;
57439;Laerm;43282;47.188;8.896;2023-06-10T04:11:33;47.85;40.96;64.68;;
57439;Laerm;43282;47.188;8.896;2023-06-10T04:13:58;50.67;41.22;67.33;;
57439;Laerm;43282;47.188;8.896;2023-06-10T04:16:23;51.40;41.30;72.58;;
57439;Laerm;43282;47.188;8.896;2023-06-10T04:18:49;49.23;42.03;60.70;;
57439;Laerm;43282;47.188;8.896;2023-06-10T04:21:15;53.13;42.41;67.22;;
57439;Laerm;43282;47.188;8.896;2023-06-10T04:23:40;49.10;42.29;61.40;;
57439;Laerm;43282;47.188;8.896;2023-06-10T04:26:05;49.31;41.82;60.70;;
57439;Laerm;43282;47.188;8.896;2023-06-10T04:28:31;51.28;43.14;63.65;;
57439;Laerm;43282;47.188;8.896;2023-06-10T04:30:56;50.96;42.47;62.71;;
57439;Laerm;43282;47.188;8.896;2023-06-10T04:33:23;49.10;42.03;63.41;;
57439;Laerm;43282;47.188;8.896;2023-06-10T04:35:48;47.89;40.63;61.52;;
57439;Laerm;43282;47.188;8.896;2023-06-10T04:38:14;51.38;41.38;65.10;;
57439;Laerm;43282;47.188;8.896;2023-06-10T04:40:39;60.55;41.61;79.91;;
57439;Laerm;43282;47.188;8.896;2023-06-10T04:43:05;53.56;41.61;71.05;;
57439;Laerm;43282;47.188;8.896;2023-06-10T04:45:30;51.59;43.09;67.49;;
57439;Laerm;43282;47.188;8.896;2023-06-10T04:47:56;63.43;41.38;95.53;;
57439;Laerm;43282;47.188;8.896;2023-06-10T04:50:23;48.64;40.62;62.43;;
57439;Laerm;43282;47.188;8.896;2023-06-10T04:52:48;50.99;41.75;66.06;;
57439;Laerm;43282;47.188;8.896;2023-06-10T04:55:13;52.17;40.62;66.95;;
57439;Laerm;43282;47.188;8.896;2023-06-10T04:57:39;58.45;40.62;80.70;;
57439;Laerm;43282;47.188;8.896;2023-06-10T05:00:04;53.87;41.22;70.74;;
57439;Laerm;43282;47.188;8.896;2023-06-10T05:02:31;54.00;41.46;65.57;;
57439;Laerm;43282;47.188;8.896;2023-06-10T05:04:56;47.39;40.03;60.97;;
57439;Laerm;43282;47.188;8.896;2023-06-10T05:07:23;53.56;40.43;69.45;;
57439;Laerm;43282;47.188;8.896;2023-06-10T05:09:48;48.95;39.92;66.93;;
57439;Laerm;43282;47.188;8.896;2023-06-10T05:12:14;53.02;39.92;70.32;;
57439;Laerm;43282;47.188;8.896;2023-06-10T05:14:39;56.17;41.06;73.52;;
57439;Laerm;43282;47.188;8.896;2023-06-10T05:17:05;49.44;40.89;66.34;;
57439;Laerm;43282;47.188;8.896;2023-06-10T05:19:31;53.19;41.53;66.34;;
57439;Laerm;43282;47.188;8.896;2023-06-10T05:21:57;49.07;39.34;62.97;;
57439;Laerm;43282;47.188;8.896;2023-06-10T05:24:23;52.49;41.06;63.90;;
57439;Laerm;43282;47.188;8.896;2023-06-10T05:26:48;60.27;41.75;77.86;;
57439;Laerm;43282;47.188;8.896;2023-06-10T05:29:16;51.02;40.71;66.33;;
57439;Laerm;43282;47.188;8.896;2023-06-10T05:31:42;51.23;40.54;64.05;;
57439;Laerm;43282;47.188;8.896;2023-06-10T05:34:07;52.00;42.22;63.89;;
57439;Laerm;43282;47.188;8.896;2023-06-10T05:36:33;52.42;40.62;64.42;;
57439;Laerm;43282;47.188;8.896;2023-06-10T05:38:58;50.71;41.14;62.24;;
57439;Laerm;43282;47.188;8.896;2023-06-10T05:41:24;52.01;41.46;62.46;;
57439;Laerm;43282;47.188;8.896;2023-06-10T05:43:50;51.68;42.53;61.32;;
57439;Laerm;43282;47.188;8.896;2023-06-10T05:46:16;55.20;42.93;70.38;;
57439;Laerm;43282;47.188;8.896;2023-06-10T05:48:41;49.95;41.22;60.18;;
57439;Laerm;43282;47.188;8.896;2023-06-10T05:51:06;51.73;42.03;66.86;;
57439;Laerm;43282;47.188;8.896;2023-06-10T05:53:32;51.17;42.16;64.21;;
57439;Laerm;43282;47.188;8.896;2023-06-10T05:55:57;52.27;41.96;66.55;;
57439;Laerm;43282;47.188;8.896;2023-06-10T05:58:23;51.92;42.09;65.01;;
57439;Laerm;43282;47.188;8.896;2023-06-10T06:00:49;52.34;42.59;62.77;;
57439;Laerm;43282;47.188;8.896;2023-06-10T06:03:14;52.09;41.68;67.14;;
57439;Laerm;43282;47.188;8.896;2023-06-10T06:05:40;51.01;41.06;70.61;;
57439;Laerm;43282;47.188;8.896;2023-06-10T06:08:05;52.16;41.53;62.79;;
57439;Laerm;43282;47.188;8.896;2023-06-10T06:10:31;52.52;42.59;62.47;;
57439;Laerm;43282;47.188;8.896;2023-06-10T06:12:56;51.67;40.89;61.80;;
57439;Laerm;43282;47.188;8.896;2023-06-10T06:15:22;53.62;42.82;67.75;;
57439;Laerm;43282;47.188;8.896;2023-06-10T06:17:47;54.67;42.59;69.06;;
57439;Laerm;43282;47.188;8.896;2023-06-10T06:20:18;55.23;42.98;70.44;;
57439;Laerm;43282;47.188;8.896;2023-06-10T06:22:43;53.68;46.28;66.40;;
57439;Laerm;43282;47.188;8.896;2023-06-10T06:25:09;54.25;41.89;65.20;;
57439;Laerm;43282;47.188;8.896;2023-06-10T06:27:34;55.68;42.35;71.66;;
57439;Laerm;43282;47.188;8.896;2023-06-10T06:29:59;52.56;42.65;63.53;;
57439;Laerm;43282;47.188;8.896;2023-06-10T06:32:25;61.23;41.82;81.82;;
57439;Laerm;43282;47.188;8.896;2023-06-10T06:34:53;51.90;42.41;61.81;;
57439;Laerm;43282;47.188;8.896;2023-06-10T06:37:22;58.95;42.88;75.50;;
57439;Laerm;43282;47.188;8.896;2023-06-10T06:39:52;58.27;43.77;73.13;;
57439;Laerm;43282;47.188;8.896;2023-06-10T06:42:18;61.43;42.65;78.57;;
57439;Laerm;43282;47.188;8.896;2023-06-10T06:44:44;52.36;42.88;62.24;;
57439;Laerm;43282;47.188;8.896;2023-06-10T06:47:09;54.23;43.09;72.76;;
57439;Laerm;43282;47.188;8.896;2023-06-10T06:49:35;61.43;42.65;77.92;;
57439;Laerm;43282;47.188;8.896;2023-06-10T06:52:01;60.79;43.04;78.54;;
57439;Laerm;43282;47.188;8.896;2023-06-10T06:54:26;55.27;43.14;66.50;;
57439;Laerm;43282;47.188;8.896;2023-06-10T06:56:51;57.77;43.63;75.35;;
57439;Laerm;43282;47.188;8.896;2023-06-10T06:59:17;53.20;43.39;70.89;;
57439;Laerm;43282;47.188;8.896;2023-06-10T07:01:44;58.85;42.98;75.52;;
57439;Laerm;43282;47.188;8.896;2023-06-10T07:04:10;61.03;42.93;79.29;;
57439;Laerm;43282;47.188;8.896;2023-06-10T07:06:35;55.85;43.09;69.48;;
57439;Laerm;43282;47.188;8.896;2023-06-10T07:09:01;53.77;43.34;64.07;;
57439;Laerm;43282;47.188;8.896;2023-06-10T07:11:26;55.12;42.93;66.55;;
57439;Laerm;43282;47.188;8.896;2023-06-10T07:13:52;53.20;42.22;66.90;;
57439;Laerm;43282;47.188;8.896;2023-06-10T07:16:17;55.08;43.28;66.68;;
57439;Laerm;43282;47.188;8.896;2023-06-10T07:18:45;54.02;42.65;65.09;;
57439;Laerm;43282;47.188;8.896;2023-06-10T07:21:11;54.67;44.07;66.55;;
57439;Laerm;43282;47.188;8.896;2023-06-10T07:23:36;53.96;43.39;64.63;;
57439;Laerm;43282;47.188;8.896;2023-06-10T07:26:02;53.52;43.09;69.45;;
57439;Laerm;43282;47.188;8.896;2023-06-10T07:28:27;53.15;43.39;64.00;;
57439;Laerm;43282;47.188;8.896;2023-06-10T07:30:53;57.98;43.44;76.26;;
57439;Laerm;43282;47.188;8.896;2023-06-10T07:33:19;57.41;44.39;69.81;;
57439;Laerm;43282;47.188;8.896;2023-06-10T07:35:44;56.80;42.82;69.67;;
57439;Laerm;43282;47.188;8.896;2023-06-10T07:38:09;55.23;44.97;76.72;;
57439;Laerm;43282;47.188;8.896;2023-06-10T07:40:35;57.30;45.54;66.27;;
57439;Laerm;43282;47.188;8.896;2023-06-10T07:43:01;55.95;46.28;65.96;;
57439;Laerm;43282;47.188;8.896;2023-06-10T07:45:26;54.30;43.49;68.25;;
57439;Laerm;43282;47.188;8.896;2023-06-10T07:47:51;62.05;44.62;78.38;;
57439;Laerm;43282;47.188;8.896;2023-06-10T07:50:17;58.78;43.99;74.03;;
57439;Laerm;43282;47.188;8.896;2023-06-10T07:52:42;55.47;44.19;73.16;;
57439;Laerm;43282;47.188;8.896;2023-06-10T07:55:08;56.68;45.72;68.14;;
57439;Laerm;43282;47.188;8.896;2023-06-10T07:57:33;63.23;42.76;86.22;;
57439;Laerm;43282;47.188;8.896;2023-06-10T08:00:02;56.49;43.90;69.04;;
57439;Laerm;43282;47.188;8.896;2023-06-10T08:02:29;55.56;43.29;68.80;;
57439;Laerm;43282;47.188;8.896;2023-06-10T08:04:55;53.28;43.99;68.16;;
57439;Laerm;43282;47.188;8.896;2023-06-10T08:07:20;57.72;42.98;72.98;;
57439;Laerm;43282;47.188;8.896;2023-06-10T08:09:45;58.09;43.19;74.22;;
57439;Laerm;43282;47.188;8.896;2023-06-10T08:12:11;54.59;44.19;64.78;;
57439;Laerm;43282;47.188;8.896;2023-06-10T08:14:36;57.76;46.84;75.36;;
57439;Laerm;43282;47.188;8.896;2023-06-10T08:17:02;59.85;44.47;79.66;;
57439;Laerm;43282;47.188;8.896;2023-06-10T08:19:30;54.87;44.39;65.28;;
57439;Laerm;43282;47.188;8.896;2023-06-10T08:21:55;54.08;43.39;68.06;;
57439;Laerm;43282;47.188;8.896;2023-06-10T08:24:21;56.28;43.86;68.36;;
57439;Laerm;43282;47.188;8.896;2023-06-10T08:26:46;61.57;42.88;80.24;;
57439;Laerm;43282;47.188;8.896;2023-06-10T08:29:12;57.47;43.39;73.78;;
57439;Laerm;43282;47.188;8.896;2023-06-10T08:31:39;60.73;43.77;82.34;;
57439;Laerm;43282;47.188;8.896;2023-06-10T08:34:06;59.34;44.51;75.69;;
57439;Laerm;43282;47.188;8.896;2023-06-10T08:36:31;62.30;43.81;83.70;;
57439;Laerm;43282;47.188;8.896;2023-06-10T08:38:56;53.52;42.88;62.88;;
57439;Laerm;43282;47.188;8.896;2023-06-10T08:41:21;52.47;42.09;64.60;;
57439;Laerm;43282;47.188;8.896;2023-06-10T08:43:59;54.99;43.49;71.56;;
57439;Laerm;43282;47.188;8.896;2023-06-10T08:46:28;59.88;45.17;76.44;;
57439;Laerm;43282;47.188;8.896;2023-06-10T08:48:56;55.05;44.65;63.44;;
57439;Laerm;43282;47.188;8.896;2023-06-10T08:51:26;62.47;46.02;79.36;;
57439;Laerm;43282;47.188;8.896;2023-06-10T08:54:02;58.99;43.39;76.24;;
57439;Laerm;43282;47.188;8.896;2023-06-10T08:56:28;56.41;44.69;69.08;;
57439;Laerm;43282;47.188;8.896;2023-06-10T08:58:55;57.11;44.51;73.21;;
57439;Laerm;43282;47.188;8.896;2023-06-10T09:01:22;56.67;43.44;69.97;;
57439;Laerm;43282;47.188;8.896;2023-06-10T09:03:48;56.94;44.15;69.71;;
57439;Laerm;43282;47.188;8.896;2023-06-10T09:06:14;54.95;45.39;68.76;;
57439;Laerm;43282;47.188;8.896;2023-06-10T09:08:39;55.94;44.27;66.31;;
57439;Laerm;43282;47.188;8.896;2023-06-10T09:11:05;54.11;43.39;66.01;;
57439;Laerm;43282;47.188;8.896;2023-06-10T09:13:31;59.05;42.09;76.42;;
57439;Laerm;43282;47.188;8.896;2023-06-10T09:15:56;56.57;44.04;68.39;;
57439;Laerm;43282;47.188;8.896;2023-06-10T09:18:28;55.18;43.81;66.94;;
57439;Laerm;43282;47.188;8.896;2023-06-10T09:20:54;62.01;43.63;80.94;;
57439;Laerm;43282;47.188;8.896;2023-06-10T09:23:19;55.14;44.51;66.11;;
57439;Laerm;43282;47.188;8.896;2023-06-10T09:25:45;54.17;42.41;63.60;;
57439;Laerm;43282;47.188;8.896;2023-06-10T09:28:13;54.81;42.98;66.02;;
57439;Laerm;43282;47.188;8.896;2023-06-10T09:30:40;55.90;43.44;70.23;;
57439;Laerm;43282;47.188;8.896;2023-06-10T09:33:12;54.22;42.93;66.98;;
57439;Laerm;43282;47.188;8.896;2023-06-10T09:35:44;53.22;42.82;66.89;;
57439;Laerm;43282;47.188;8.896;2023-06-10T09:38:10;56.44;42.59;69.22;;
57439;Laerm;43282;47.188;8.896;2023-06-10T09:40:40;69.57;43.29;83.40;;
57439;Laerm;43282;47.188;8.896;2023-06-10T09:43:13;54.28;42.16;65.64;;
57439;Laerm;43282;47.188;8.896;2023-06-10T09:45:39;52.61;42.16;63.17;;
57439;Laerm;43282;47.188;8.896;2023-06-10T09:48:05;58.99;41.61;78.49;;
57439;Laerm;43282;47.188;8.896;2023-06-10T09:50:33;58.61;43.14;76.09;;
57439;Laerm;43282;47.188;8.896;2023-06-10T09:53:00;54.65;41.89;74.13;;
57439;Laerm;43282;47.188;8.896;2023-06-10T09:55:27;55.29;41.96;77.55;;
57439;Laerm;43282;47.188;8.896;2023-06-10T09:57:53;55.91;42.98;66.52;;
57439;Laerm;43282;47.188;8.896;2023-06-10T10:00:19;54.73;42.71;68.36;;
57439;Laerm;43282;47.188;8.896;2023-06-10T10:02:45;52.49;42.98;62.69;;
57439;Laerm;43282;47.188;8.896;2023-06-10T10:05:15;55.77;41.96;67.85;;
57439;Laerm;43282;47.188;8.896;2023-06-10T10:07:41;56.08;42.98;69.15;;
57439;Laerm;43282;47.188;8.896;2023-06-10T10:10:07;55.44;41.89;67.89;;
57439;Laerm;43282;47.188;8.896;2023-06-10T10:12:34;52.74;42.16;64.62;;
57439;Laerm;43282;47.188;8.896;2023-06-10T10:15:00;53.44;42.76;64.74;;
57439;Laerm;43282;47.188;8.896;2023-06-10T10:17:27;52.95;42.29;65.33;;
57439;Laerm;43282;47.188;8.896;2023-06-10T10:19:53;52.44;43.04;63.57;;
57439;Laerm;43282;47.188;8.896;2023-06-10T10:22:26;56.18;42.88;72.13;;
57439;Laerm;43282;47.188;8.896;2023-06-10T10:24:59;53.95;42.41;70.57;;
57439;Laerm;43282;47.188;8.896;2023-06-10T10:27:30;53.71;42.35;68.79;;
57439;Laerm;43282;47.188;8.896;2023-06-10T10:29:58;52.99;41.38;69.98;;
57439;Laerm;43282;47.188;8.896;2023-06-10T10:32:35;57.67;42.35;75.08;;
57439;Laerm;43282;47.188;8.896;2023-06-10T10:35:14;52.69;41.61;63.82;;
57439;Laerm;43282;47.188;8.896;2023-06-10T10:37:41;57.98;41.89;76.53;;
57439;Laerm;43282;47.188;8.896;2023-06-10T10:40:07;52.28;40.98;62.35;;
57439;Laerm;43282;47.188;8.896;2023-06-10T10:42:33;63.64;42.65;83.61;;
57439;Laerm;43282;47.188;8.896;2023-06-10T10:45:00;53.75;42.29;67.15;;
57439;Laerm;43282;47.188;8.896;2023-06-10T10:47:27;53.79;41.75;64.83;;
57439;Laerm;43282;47.188;8.896;2023-06-10T10:49:54;55.84;42.59;74.30;;
57439;Laerm;43282;47.188;8.896;2023-06-10T10:52:21;63.86;42.59;83.39;;
57439;Laerm;43282;47.188;8.896;2023-06-10T10:54:46;55.53;42.53;69.61;;
57439;Laerm;43282;47.188;8.896;2023-06-10T10:57:13;55.59;42.53;69.31;;
57439;Laerm;43282;47.188;8.896;2023-06-10T11:00:00;69.16;44.83;81.99;;
57439;Laerm;43282;47.188;8.896;2023-06-10T11:02:35;52.87;42.03;69.00;;
57439;Laerm;43282;47.188;8.896;2023-06-10T11:05:01;56.45;43.09;68.43;;
57439;Laerm;43282;47.188;8.896;2023-06-10T11:07:26;53.38;42.16;66.65;;
57439;Laerm;43282;47.188;8.896;2023-06-10T11:10:01;59.39;42.59;73.17;;
57439;Laerm;43282;47.188;8.896;2023-06-10T11:15:11;57.65;41.06;77.51;;
57439;Laerm;43282;47.188;8.896;2023-06-10T11:23:10;54.54;42.47;70.53;;
57439;Laerm;43282;47.188;8.896;2023-06-10T11:25:40;51.35;41.96;66.65;;
57439;Laerm;43282;47.188;8.896;2023-06-10T11:28:19;54.17;42.88;66.07;;
57439;Laerm;43282;47.188;8.896;2023-06-10T11:30:45;53.54;42.16;67.10;;
57439;Laerm;43282;47.188;8.896;2023-06-10T11:33:14;57.10;42.98;68.02;;
57439;Laerm;43282;47.188;8.896;2023-06-10T11:35:40;56.14;42.35;71.11;;
57439;Laerm;43282;47.188;8.896;2023-06-10T11:38:05;62.40;42.03;77.87;;
57439;Laerm;43282;47.188;8.896;2023-06-10T11:40:48;52.82;42.82;66.69;;
57439;Laerm;43282;47.188;8.896;2023-06-10T11:43:15;53.43;41.96;65.26;;
57439;Laerm;43282;47.188;8.896;2023-06-10T11:45:41;55.78;42.41;69.55;;
57439;Laerm;43282;47.188;8.896;2023-06-10T11:48:09;55.54;42.76;70.00;;
57439;Laerm;43282;47.188;8.896;2023-06-10T11:50:34;55.23;42.53;70.60;;
57439;Laerm;43282;47.188;8.896;2023-06-10T11:53:00;61.18;43.34;77.96;;
57439;Laerm;43282;47.188;8.896;2023-06-10T11:55:39;54.38;43.49;65.75;;
57439;Laerm;43282;47.188;8.896;2023-06-10T11:58:04;55.40;41.96;67.27;;
57439;Laerm;43282;47.188;8.896;2023-06-10T12:00:30;53.15;41.96;63.90;;
57439;Laerm;43282;47.188;8.896;2023-06-10T12:02:56;59.01;43.04;74.43;;
57439;Laerm;43282;47.188;8.896;2023-06-10T12:05:22;55.21;41.48;72.23;;
57439;Laerm;43282;47.188;8.896;2023-06-10T12:07:48;54.15;41.06;66.71;;
57439;Laerm;43282;47.188;8.896;2023-06-10T12:10:13;57.87;41.30;73.60;;
57439;Laerm;43282;47.188;8.896;2023-06-10T12:12:38;56.42;42.65;73.90;;
57439;Laerm;43282;47.188;8.896;2023-06-10T12:15:04;53.35;42.29;65.79;;
57439;Laerm;43282;47.188;8.896;2023-06-10T12:20:25;55.55;42.71;73.08;;
57439;Laerm;43282;47.188;8.896;2023-06-10T12:22:51;51.64;41.53;64.20;;
57439;Laerm;43282;47.188;8.896;2023-06-10T12:25:16;53.48;41.96;63.87;;
57439;Laerm;43282;47.188;8.896;2023-06-10T12:27:51;54.97;42.29;68.96;;
57439;Laerm;43282;47.188;8.896;2023-06-10T12:30:21;53.91;42.03;68.74;;
57439;Laerm;43282;47.188;8.896;2023-06-10T12:32:47;54.65;43.29;66.81;;
57439;Laerm;43282;47.188;8.896;2023-06-10T12:35:13;62.68;43.58;78.75;;
57439;Laerm;43282;47.188;8.896;2023-06-10T12:37:39;51.84;42.29;64.06;;
57439;Laerm;43282;47.188;8.896;2023-06-10T12:40:05;52.94;43.19;70.37;;
57439;Laerm;43282;47.188;8.896;2023-06-10T12:42:31;55.30;42.09;72.74;;
57439;Laerm;43282;47.188;8.896;2023-06-10T12:44:59;54.24;42.03;74.19;;
57439;Laerm;43282;47.188;8.896;2023-06-10T12:47:31;55.13;44.47;69.67;;
57439;Laerm;43282;47.188;8.896;2023-06-10T12:49:58;58.49;43.94;76.69;;
57439;Laerm;43282;47.188;8.896;2023-06-10T12:52:24;54.30;45.36;66.24;;
57439;Laerm;43282;47.188;8.896;2023-06-10T12:54:49;54.17;41.75;67.72;;
57439;Laerm;43282;47.188;8.896;2023-06-10T12:57:15;55.00;43.49;66.85;;
57439;Laerm;43282;47.188;8.896;2023-06-10T12:59:40;53.04;42.76;67.16;;
57439;Laerm;43282;47.188;8.896;2023-06-10T13:02:07;61.09;41.96;79.53;;
57439;Laerm;43282;47.188;8.896;2023-06-10T13:04:32;57.81;43.19;71.07;;
57439;Laerm;43282;47.188;8.896;2023-06-10T13:06:58;56.51;42.29;74.79;;
57439;Laerm;43282;47.188;8.896;2023-06-10T13:09:24;55.60;42.53;74.97;;
57439;Laerm;43282;47.188;8.896;2023-06-10T13:11:49;58.35;41.53;76.36;;
57439;Laerm;43282;47.188;8.896;2023-06-10T13:14:15;60.10;41.38;83.39;;
57439;Laerm;43282;47.188;8.896;2023-06-10T13:16:40;60.91;44.03;83.75;;
57439;Laerm;43282;47.188;8.896;2023-06-10T13:19:05;54.62;42.71;70.94;;
57439;Laerm;43282;47.188;8.896;2023-06-10T13:21:34;55.67;43.39;71.61;;
57439;Laerm;43282;47.188;8.896;2023-06-10T13:23:59;55.03;43.63;72.58;;
57439;Laerm;43282;47.188;8.896;2023-06-10T13:26:24;54.29;41.96;68.12;;
57439;Laerm;43282;47.188;8.896;2023-06-10T13:28:50;61.51;42.16;79.52;;
57439;Laerm;43282;47.188;8.896;2023-06-10T13:31:15;58.19;42.98;71.29;;
57439;Laerm;43282;47.188;8.896;2023-06-10T13:33:41;52.79;43.58;69.72;;
57439;Laerm;43282;47.188;8.896;2023-06-10T13:36:08;53.11;43.19;66.56;;
57439;Laerm;43282;47.188;8.896;2023-06-10T13:38:33;60.04;41.68;80.70;;
57439;Laerm;43282;47.188;8.896;2023-06-10T13:40:59;58.41;42.03;81.48;;
57439;Laerm;43282;47.188;8.896;2023-06-10T13:43:24;55.33;43.63;70.49;;
57439;Laerm;43282;47.188;8.896;2023-06-10T13:46:01;55.32;42.29;71.67;;
57439;Laerm;43282;47.188;8.896;2023-06-10T13:48:26;56.86;43.04;75.41;;
57439;Laerm;43282;47.188;8.896;2023-06-10T13:50:52;54.86;41.68;77.18;;
57439;Laerm;43282;47.188;8.896;2023-06-10T13:53:17;56.78;43.14;74.91;;